sensor_id;sensor_type;location;lat;lon;timestamp;P1;durP1;ratioP1;P2;durP2;ratioP2
78416;SDS011;67715;46.170;6.140;2023-06-26T00:02:08;7.90;;;4.97;;
78416;SDS011;67715;46.170;6.140;2023-06-26T00:04:34;6.47;;;4.45;;
78416;SDS011;67715;46.170;6.140;2023-06-26T00:07:00;7.57;;;5.20;;
78416;SDS011;67715;46.170;6.140;2023-06-26T00:09:26;6.25;;;4.38;;
78416;SDS011;67715;46.170;6.140;2023-06-26T00:11:51;9.53;;;5.13;;
78416;SDS011;67715;46.170;6.140;2023-06-26T00:14:17;7.07;;;4.60;;
78416;SDS011;67715;46.170;6.140;2023-06-26T00:16:46;8.18;;;5.10;;
78416;SDS011;67715;46.170;6.140;2023-06-26T00:19:11;10.82;;;5.13;;
78416;SDS011;67715;46.170;6.140;2023-06-26T00:21:37;6.93;;;4.63;;
78416;SDS011;67715;46.170;6.140;2023-06-26T00:24:02;7.40;;;4.80;;
78416;SDS011;67715;46.170;6.140;2023-06-26T00:26:27;9.27;;;5.38;;
78416;SDS011;67715;46.170;6.140;2023-06-26T00:28:53;7.03;;;4.93;;
78416;SDS011;67715;46.170;6.140;2023-06-26T00:31:18;9.33;;;5.67;;
78416;SDS011;67715;46.170;6.140;2023-06-26T00:33:43;8.60;;;5.23;;
78416;SDS011;67715;46.170;6.140;2023-06-26T00:36:09;9.30;;;5.75;;
78416;SDS011;67715;46.170;6.140;2023-06-26T00:38:34;8.20;;;5.03;;
78416;SDS011;67715;46.170;6.140;2023-06-26T00:41:00;6.88;;;5.15;;
78416;SDS011;67715;46.170;6.140;2023-06-26T00:43:25;7.60;;;5.43;;
78416;SDS011;67715;46.170;6.140;2023-06-26T00:45:51;7.70;;;5.22;;
78416;SDS011;67715;46.170;6.140;2023-06-26T00:48:16;8.77;;;5.00;;
78416;SDS011;67715;46.170;6.140;2023-06-26T00:50:42;8.00;;;5.30;;
78416;SDS011;67715;46.170;6.140;2023-06-26T00:53:09;8.98;;;5.45;;
78416;SDS011;67715;46.170;6.140;2023-06-26T00:55:34;6.95;;;4.63;;
78416;SDS011;67715;46.170;6.140;2023-06-26T00:58:00;11.63;;;4.95;;
78416;SDS011;67715;46.170;6.140;2023-06-26T01:00:25;7.27;;;4.90;;
78416;SDS011;67715;46.170;6.140;2023-06-26T01:02:51;8.23;;;5.03;;
78416;SDS011;67715;46.170;6.140;2023-06-26T01:05:16;6.87;;;4.93;;
78416;SDS011;67715;46.170;6.140;2023-06-26T01:07:48;7.72;;;5.18;;
78416;SDS011;67715;46.170;6.140;2023-06-26T01:10:14;7.53;;;5.43;;
78416;SDS011;67715;46.170;6.140;2023-06-26T01:12:39;9.30;;;5.63;;
78416;SDS011;67715;46.170;6.140;2023-06-26T01:15:05;7.50;;;5.28;;
78416;SDS011;67715;46.170;6.140;2023-06-26T01:17:31;6.80;;;5.10;;
78416;SDS011;67715;46.170;6.140;2023-06-26T01:20:00;7.32;;;4.70;;
78416;SDS011;67715;46.170;6.140;2023-06-26T01:28:04;8.10;;;4.88;;
78416;SDS011;67715;46.170;6.140;2023-06-26T01:30:31;6.03;;;4.65;;
78416;SDS011;67715;46.170;6.140;2023-06-26T01:32:57;6.97;;;5.03;;
78416;SDS011;67715;46.170;6.140;2023-06-26T01:35:26;8.55;;;5.55;;
78416;SDS011;67715;46.170;6.140;2023-06-26T01:37:51;8.48;;;4.93;;
78416;SDS011;67715;46.170;6.140;2023-06-26T01:40:17;6.63;;;4.70;;
78416;SDS011;67715;46.170;6.140;2023-06-26T01:42:42;7.30;;;4.77;;
78416;SDS011;67715;46.170;6.140;2023-06-26T01:45:14;7.70;;;5.53;;
78416;SDS011;67715;46.170;6.140;2023-06-26T01:47:50;6.95;;;5.03;;
78416;SDS011;67715;46.170;6.140;2023-06-26T01:50:22;10.02;;;4.90;;
78416;SDS011;67715;46.170;6.140;2023-06-26T01:55:36;6.93;;;4.80;;
78416;SDS011;67715;46.170;6.140;2023-06-26T01:58:05;9.00;;;4.55;;
78416;SDS011;67715;46.170;6.140;2023-06-26T02:00:31;6.72;;;4.60;;
78416;SDS011;67715;46.170;6.140;2023-06-26T02:02:57;8.93;;;4.25;;
78416;SDS011;67715;46.170;6.140;2023-06-26T02:05:22;7.50;;;4.97;;
78416;SDS011;67715;46.170;6.140;2023-06-26T02:07:48;7.25;;;5.15;;
78416;SDS011;67715;46.170;6.140;2023-06-26T02:10:14;7.43;;;4.93;;
78416;SDS011;67715;46.170;6.140;2023-06-26T02:12:39;7.68;;;4.90;;
78416;SDS011;67715;46.170;6.140;2023-06-26T02:15:05;9.50;;;5.45;;
78416;SDS011;67715;46.170;6.140;2023-06-26T02:17:31;8.27;;;5.18;;
78416;SDS011;67715;46.170;6.140;2023-06-26T02:19:56;7.33;;;4.90;;
78416;SDS011;67715;46.170;6.140;2023-06-26T02:22:22;8.77;;;5.60;;
78416;SDS011;67715;46.170;6.140;2023-06-26T02:24:47;9.25;;;5.00;;
78416;SDS011;67715;46.170;6.140;2023-06-26T02:27:12;6.20;;;4.80;;
78416;SDS011;67715;46.170;6.140;2023-06-26T02:29:38;6.47;;;4.43;;
78416;SDS011;67715;46.170;6.140;2023-06-26T02:32:04;7.35;;;4.97;;
78416;SDS011;67715;46.170;6.140;2023-06-26T02:34:30;7.38;;;4.97;;
78416;SDS011;67715;46.170;6.140;2023-06-26T02:36:55;7.90;;;5.37;;
78416;SDS011;67715;46.170;6.140;2023-06-26T02:39:21;7.05;;;5.07;;
78416;SDS011;67715;46.170;6.140;2023-06-26T02:41:46;7.07;;;4.70;;
78416;SDS011;67715;46.170;6.140;2023-06-26T02:44:11;6.70;;;4.30;;
78416;SDS011;67715;46.170;6.140;2023-06-26T02:46:37;8.27;;;4.82;;
78416;SDS011;67715;46.170;6.140;2023-06-26T02:49:03;6.55;;;5.00;;
78416;SDS011;67715;46.170;6.140;2023-06-26T02:51:31;8.43;;;5.38;;
78416;SDS011;67715;46.170;6.140;2023-06-26T02:53:57;6.40;;;4.90;;
78416;SDS011;67715;46.170;6.140;2023-06-26T02:56:22;7.78;;;5.13;;
78416;SDS011;67715;46.170;6.140;2023-06-26T02:58:48;6.43;;;4.67;;
78416;SDS011;67715;46.170;6.140;2023-06-26T03:01:13;7.93;;;5.77;;
78416;SDS011;67715;46.170;6.140;2023-06-26T03:03:40;6.87;;;4.70;;
78416;SDS011;67715;46.170;6.140;2023-06-26T03:06:06;8.25;;;5.00;;
78416;SDS011;67715;46.170;6.140;2023-06-26T03:08:32;9.80;;;5.45;;
78416;SDS011;67715;46.170;6.140;2023-06-26T03:10:58;7.65;;;4.55;;
78416;SDS011;67715;46.170;6.140;2023-06-26T03:13:23;9.23;;;5.00;;
78416;SDS011;67715;46.170;6.140;2023-06-26T03:15:49;6.57;;;5.07;;
78416;SDS011;67715;46.170;6.140;2023-06-26T03:18:14;6.65;;;5.05;;
78416;SDS011;67715;46.170;6.140;2023-06-26T03:20:40;7.00;;;4.78;;
78416;SDS011;67715;46.170;6.140;2023-06-26T03:23:05;9.07;;;5.03;;
78416;SDS011;67715;46.170;6.140;2023-06-26T03:25:30;7.28;;;4.88;;
78416;SDS011;67715;46.170;6.140;2023-06-26T03:27:56;7.57;;;4.93;;
78416;SDS011;67715;46.170;6.140;2023-06-26T03:30:21;8.00;;;5.50;;
78416;SDS011;67715;46.170;6.140;2023-06-26T03:32:46;7.30;;;4.72;;
78416;SDS011;67715;46.170;6.140;2023-06-26T03:35:12;7.20;;;4.90;;
78416;SDS011;67715;46.170;6.140;2023-06-26T03:37:37;5.63;;;4.67;;
78416;SDS011;67715;46.170;6.140;2023-06-26T03:40:02;11.38;;;4.80;;
78416;SDS011;67715;46.170;6.140;2023-06-26T03:42:29;7.50;;;4.97;;
78416;SDS011;67715;46.170;6.140;2023-06-26T03:44:55;6.88;;;4.95;;
78416;SDS011;67715;46.170;6.140;2023-06-26T03:47:20;7.43;;;5.37;;
78416;SDS011;67715;46.170;6.140;2023-06-26T03:49:45;7.90;;;4.60;;
78416;SDS011;67715;46.170;6.140;2023-06-26T03:52:11;10.40;;;4.83;;
78416;SDS011;67715;46.170;6.140;2023-06-26T03:54:36;6.50;;;5.00;;
78416;SDS011;67715;46.170;6.140;2023-06-26T03:57:01;7.43;;;6.07;;
78416;SDS011;67715;46.170;6.140;2023-06-26T03:59:27;8.45;;;5.82;;
78416;SDS011;67715;46.170;6.140;2023-06-26T04:01:52;6.63;;;5.27;;
78416;SDS011;67715;46.170;6.140;2023-06-26T04:04:18;9.10;;;5.32;;
78416;SDS011;67715;46.170;6.140;2023-06-26T04:06:43;6.53;;;4.63;;
78416;SDS011;67715;46.170;6.140;2023-06-26T04:09:08;7.07;;;5.37;;
78416;SDS011;67715;46.170;6.140;2023-06-26T04:11:34;8.47;;;5.03;;
78416;SDS011;67715;46.170;6.140;2023-06-26T04:13:59;8.57;;;5.05;;
78416;SDS011;67715;46.170;6.140;2023-06-26T04:16:25;7.47;;;5.00;;
78416;SDS011;67715;46.170;6.140;2023-06-26T04:18:51;8.25;;;4.50;;
78416;SDS011;67715;46.170;6.140;2023-06-26T04:21:17;9.00;;;5.47;;
78416;SDS011;67715;46.170;6.140;2023-06-26T04:23:43;8.90;;;6.05;;
78416;SDS011;67715;46.170;6.140;2023-06-26T04:26:08;7.85;;;5.30;;
78416;SDS011;67715;46.170;6.140;2023-06-26T04:28:34;7.50;;;5.23;;
78416;SDS011;67715;46.170;6.140;2023-06-26T04:31:00;7.88;;;5.63;;
78416;SDS011;67715;46.170;6.140;2023-06-26T04:33:28;8.57;;;5.28;;
78416;SDS011;67715;46.170;6.140;2023-06-26T04:35:54;9.60;;;5.88;;
78416;SDS011;67715;46.170;6.140;2023-06-26T04:38:19;7.00;;;5.40;;
78416;SDS011;67715;46.170;6.140;2023-06-26T04:40:45;8.88;;;5.95;;
78416;SDS011;67715;46.170;6.140;2023-06-26T04:43:10;8.93;;;5.17;;
78416;SDS011;67715;46.170;6.140;2023-06-26T04:45:35;7.32;;;5.30;;
78416;SDS011;67715;46.170;6.140;2023-06-26T04:48:01;8.85;;;4.78;;
78416;SDS011;67715;46.170;6.140;2023-06-26T04:50:27;9.32;;;5.40;;
78416;SDS011;67715;46.170;6.140;2023-06-26T04:52:54;8.82;;;5.18;;
78416;SDS011;67715;46.170;6.140;2023-06-26T04:55:19;9.38;;;5.57;;
78416;SDS011;67715;46.170;6.140;2023-06-26T04:57:46;8.38;;;5.28;;
78416;SDS011;67715;46.170;6.140;2023-06-26T05:00:12;10.00;;;5.10;;
78416;SDS011;67715;46.170;6.140;2023-06-26T05:02:38;8.23;;;4.78;;
78416;SDS011;67715;46.170;6.140;2023-06-26T05:05:03;9.07;;;5.63;;
78416;SDS011;67715;46.170;6.140;2023-06-26T05:07:29;8.55;;;5.65;;
78416;SDS011;67715;46.170;6.140;2023-06-26T05:09:54;14.07;;;6.10;;
78416;SDS011;67715;46.170;6.140;2023-06-26T05:12:20;8.35;;;5.47;;
78416;SDS011;67715;46.170;6.140;2023-06-26T05:14:45;7.20;;;5.47;;
78416;SDS011;67715;46.170;6.140;2023-06-26T05:17:11;7.47;;;5.00;;
78416;SDS011;67715;46.170;6.140;2023-06-26T05:19:38;7.78;;;5.18;;
78416;SDS011;67715;46.170;6.140;2023-06-26T05:22:03;6.90;;;4.70;;
78416;SDS011;67715;46.170;6.140;2023-06-26T05:24:32;7.60;;;5.22;;
78416;SDS011;67715;46.170;6.140;2023-06-26T05:26:58;10.15;;;6.10;;
78416;SDS011;67715;46.170;6.140;2023-06-26T05:29:24;8.48;;;5.60;;
78416;SDS011;67715;46.170;6.140;2023-06-26T05:31:50;9.00;;;5.70;;
78416;SDS011;67715;46.170;6.140;2023-06-26T05:34:16;12.38;;;5.93;;
78416;SDS011;67715;46.170;6.140;2023-06-26T05:36:42;12.30;;;6.72;;
78416;SDS011;67715;46.170;6.140;2023-06-26T05:39:08;11.07;;;5.95;;
78416;SDS011;67715;46.170;6.140;2023-06-26T05:41:34;20.20;;;9.18;;
78416;SDS011;67715;46.170;6.140;2023-06-26T05:43:59;58.20;;;21.92;;
78416;SDS011;67715;46.170;6.140;2023-06-26T05:46:25;46.97;;;17.08;;
78416;SDS011;67715;46.170;6.140;2023-06-26T05:48:50;32.67;;;12.70;;
78416;SDS011;67715;46.170;6.140;2023-06-26T05:51:15;32.57;;;13.73;;
78416;SDS011;67715;46.170;6.140;2023-06-26T05:53:41;23.25;;;11.57;;
78416;SDS011;67715;46.170;6.140;2023-06-26T05:56:06;20.83;;;9.60;;
78416;SDS011;67715;46.170;6.140;2023-06-26T05:58:32;20.60;;;9.13;;
78416;SDS011;67715;46.170;6.140;2023-06-26T06:00:57;18.27;;;8.27;;
78416;SDS011;67715;46.170;6.140;2023-06-26T06:03:23;17.57;;;7.77;;
78416;SDS011;67715;46.170;6.140;2023-06-26T06:05:48;12.18;;;6.95;;
78416;SDS011;67715;46.170;6.140;2023-06-26T06:08:14;11.27;;;7.07;;
78416;SDS011;67715;46.170;6.140;2023-06-26T06:10:39;8.23;;;6.20;;
78416;SDS011;67715;46.170;6.140;2023-06-26T06:13:04;10.13;;;6.47;;
78416;SDS011;67715;46.170;6.140;2023-06-26T06:15:29;8.90;;;5.60;;
78416;SDS011;67715;46.170;6.140;2023-06-26T06:17:55;11.47;;;7.00;;
78416;SDS011;67715;46.170;6.140;2023-06-26T06:20:20;7.87;;;5.47;;
78416;SDS011;67715;46.170;6.140;2023-06-26T06:22:46;9.50;;;6.45;;
78416;SDS011;67715;46.170;6.140;2023-06-26T06:25:13;7.50;;;5.53;;
78416;SDS011;67715;46.170;6.140;2023-06-26T06:27:38;15.90;;;7.60;;
78416;SDS011;67715;46.170;6.140;2023-06-26T06:30:04;13.53;;;7.13;;
78416;SDS011;67715;46.170;6.140;2023-06-26T06:32:29;12.75;;;7.40;;
78416;SDS011;67715;46.170;6.140;2023-06-26T06:34:55;14.75;;;7.93;;
78416;SDS011;67715;46.170;6.140;2023-06-26T06:37:20;18.40;;;8.27;;
78416;SDS011;67715;46.170;6.140;2023-06-26T06:39:45;12.80;;;7.73;;
78416;SDS011;67715;46.170;6.140;2023-06-26T06:42:10;14.10;;;8.50;;
78416;SDS011;67715;46.170;6.140;2023-06-26T06:44:36;15.00;;;9.37;;
78416;SDS011;67715;46.170;6.140;2023-06-26T06:47:01;16.13;;;8.77;;
78416;SDS011;67715;46.170;6.140;2023-06-26T06:49:27;15.35;;;7.63;;
78416;SDS011;67715;46.170;6.140;2023-06-26T06:51:52;13.13;;;7.40;;
78416;SDS011;67715;46.170;6.140;2023-06-26T06:54:17;12.53;;;7.47;;
78416;SDS011;67715;46.170;6.140;2023-06-26T06:56:43;11.52;;;7.78;;
78416;SDS011;67715;46.170;6.140;2023-06-26T06:59:08;12.93;;;7.87;;
78416;SDS011;67715;46.170;6.140;2023-06-26T07:01:34;16.25;;;8.77;;
78416;SDS011;67715;46.170;6.140;2023-06-26T07:03:59;15.07;;;7.83;;
78416;SDS011;67715;46.170;6.140;2023-06-26T07:06:24;14.93;;;7.78;;
78416;SDS011;67715;46.170;6.140;2023-06-26T07:08:50;12.93;;;7.23;;
78416;SDS011;67715;46.170;6.140;2023-06-26T07:11:15;12.07;;;7.20;;
78416;SDS011;67715;46.170;6.140;2023-06-26T07:13:41;14.95;;;6.30;;
78416;SDS011;67715;46.170;6.140;2023-06-26T07:16:06;11.60;;;6.50;;
78416;SDS011;67715;46.170;6.140;2023-06-26T07:18:31;10.32;;;6.13;;
78416;SDS011;67715;46.170;6.140;2023-06-26T07:20:56;11.63;;;6.20;;
78416;SDS011;67715;46.170;6.140;2023-06-26T07:23:22;14.35;;;5.97;;
78416;SDS011;67715;46.170;6.140;2023-06-26T07:25:48;10.93;;;6.83;;
78416;SDS011;67715;46.170;6.140;2023-06-26T07:28:13;9.67;;;6.07;;
78416;SDS011;67715;46.170;6.140;2023-06-26T07:30:38;12.53;;;6.47;;
78416;SDS011;67715;46.170;6.140;2023-06-26T07:33:04;10.48;;;6.40;;
78416;SDS011;67715;46.170;6.140;2023-06-26T07:35:29;11.73;;;5.78;;
78416;SDS011;67715;46.170;6.140;2023-06-26T07:37:54;9.80;;;5.53;;
78416;SDS011;67715;46.170;6.140;2023-06-26T07:40:20;10.90;;;6.50;;
78416;SDS011;67715;46.170;6.140;2023-06-26T07:42:45;12.02;;;6.72;;
78416;SDS011;67715;46.170;6.140;2023-06-26T07:45:11;12.00;;;7.43;;
78416;SDS011;67715;46.170;6.140;2023-06-26T07:47:40;14.68;;;8.52;;
78416;SDS011;67715;46.170;6.140;2023-06-26T07:50:06;20.25;;;9.70;;
78416;SDS011;67715;46.170;6.140;2023-06-26T07:52:31;18.30;;;8.65;;
78416;SDS011;67715;46.170;6.140;2023-06-26T07:54:57;17.77;;;9.98;;
78416;SDS011;67715;46.170;6.140;2023-06-26T07:57:22;21.98;;;11.57;;
78416;SDS011;67715;46.170;6.140;2023-06-26T07:59:47;20.93;;;10.63;;
78416;SDS011;67715;46.170;6.140;2023-06-26T08:02:13;25.77;;;12.00;;
78416;SDS011;67715;46.170;6.140;2023-06-26T08:04:38;17.37;;;11.37;;
78416;SDS011;67715;46.170;6.140;2023-06-26T08:07:03;22.63;;;12.43;;
78416;SDS011;67715;46.170;6.140;2023-06-26T08:09:29;23.75;;;11.43;;
78416;SDS011;67715;46.170;6.140;2023-06-26T08:11:55;18.95;;;12.27;;
78416;SDS011;67715;46.170;6.140;2023-06-26T08:14:21;19.35;;;10.38;;
78416;SDS011;67715;46.170;6.140;2023-06-26T08:16:46;22.77;;;11.15;;
78416;SDS011;67715;46.170;6.140;2023-06-26T08:19:12;20.63;;;10.88;;
78416;SDS011;67715;46.170;6.140;2023-06-26T08:21:39;19.92;;;10.23;;
78416;SDS011;67715;46.170;6.140;2023-06-26T08:24:05;17.98;;;9.55;;
78416;SDS011;67715;46.170;6.140;2023-06-26T08:26:30;16.55;;;9.00;;
78416;SDS011;67715;46.170;6.140;2023-06-26T08:28:55;15.47;;;8.37;;
78416;SDS011;67715;46.170;6.140;2023-06-26T08:31:21;13.03;;;7.20;;
78416;SDS011;67715;46.170;6.140;2023-06-26T08:33:46;12.68;;;7.47;;
78416;SDS011;67715;46.170;6.140;2023-06-26T08:36:12;13.80;;;8.23;;
78416;SDS011;67715;46.170;6.140;2023-06-26T08:38:37;12.60;;;7.88;;
78416;SDS011;67715;46.170;6.140;2023-06-26T08:41:05;14.95;;;7.55;;
78416;SDS011;67715;46.170;6.140;2023-06-26T08:43:30;9.98;;;6.97;;
78416;SDS011;67715;46.170;6.140;2023-06-26T08:45:56;9.07;;;6.03;;
78416;SDS011;67715;46.170;6.140;2023-06-26T08:48:21;9.70;;;5.97;;
78416;SDS011;67715;46.170;6.140;2023-06-26T08:50:48;8.17;;;5.93;;
78416;SDS011;67715;46.170;6.140;2023-06-26T08:53:18;9.00;;;5.55;;
78416;SDS011;67715;46.170;6.140;2023-06-26T08:55:52;11.55;;;6.82;;
78416;SDS011;67715;46.170;6.140;2023-06-26T08:58:18;9.88;;;5.82;;
78416;SDS011;67715;46.170;6.140;2023-06-26T09:00:43;8.30;;;5.55;;
78416;SDS011;67715;46.170;6.140;2023-06-26T09:03:08;7.45;;;5.57;;
78416;SDS011;67715;46.170;6.140;2023-06-26T09:05:34;8.30;;;5.03;;
78416;SDS011;67715;46.170;6.140;2023-06-26T09:08:01;7.65;;;5.32;;
78416;SDS011;67715;46.170;6.140;2023-06-26T09:10:26;8.40;;;6.07;;
78416;SDS011;67715;46.170;6.140;2023-06-26T09:12:54;8.43;;;5.75;;
78416;SDS011;67715;46.170;6.140;2023-06-26T09:15:20;7.75;;;5.40;;
78416;SDS011;67715;46.170;6.140;2023-06-26T09:17:48;9.65;;;5.57;;
78416;SDS011;67715;46.170;6.140;2023-06-26T09:20:13;11.98;;;5.38;;
78416;SDS011;67715;46.170;6.140;2023-06-26T09:22:41;6.13;;;4.68;;
78416;SDS011;67715;46.170;6.140;2023-06-26T09:25:07;8.43;;;5.47;;
78416;SDS011;67715;46.170;6.140;2023-06-26T09:27:34;8.45;;;5.47;;
78416;SDS011;67715;46.170;6.140;2023-06-26T09:29:59;9.13;;;5.13;;
78416;SDS011;67715;46.170;6.140;2023-06-26T09:32:25;8.23;;;5.47;;
78416;SDS011;67715;46.170;6.140;2023-06-26T09:34:51;5.88;;;4.63;;
78416;SDS011;67715;46.170;6.140;2023-06-26T09:37:17;5.95;;;5.00;;
78416;SDS011;67715;46.170;6.140;2023-06-26T09:39:42;7.27;;;5.23;;
78416;SDS011;67715;46.170;6.140;2023-06-26T09:42:08;8.65;;;5.32;;
78416;SDS011;67715;46.170;6.140;2023-06-26T09:44:34;8.93;;;5.43;;
78416;SDS011;67715;46.170;6.140;2023-06-26T09:47:01;7.22;;;5.32;;
78416;SDS011;67715;46.170;6.140;2023-06-26T09:49:28;8.80;;;5.30;;
78416;SDS011;67715;46.170;6.140;2023-06-26T09:51:53;6.63;;;4.63;;
78416;SDS011;67715;46.170;6.140;2023-06-26T09:54:18;5.85;;;4.85;;
78416;SDS011;67715;46.170;6.140;2023-06-26T09:56:46;7.03;;;5.18;;
78416;SDS011;67715;46.170;6.140;2023-06-26T09:59:11;7.23;;;5.77;;
78416;SDS011;67715;46.170;6.140;2023-06-26T10:01:40;8.60;;;5.50;;
78416;SDS011;67715;46.170;6.140;2023-06-26T10:04:06;6.85;;;4.97;;
78416;SDS011;67715;46.170;6.140;2023-06-26T10:06:32;6.43;;;5.00;;
78416;SDS011;67715;46.170;6.140;2023-06-26T10:08:58;7.60;;;5.57;;
78416;SDS011;67715;46.170;6.140;2023-06-26T10:11:25;9.77;;;5.55;;
78416;SDS011;67715;46.170;6.140;2023-06-26T10:13:54;6.47;;;4.90;;
78416;SDS011;67715;46.170;6.140;2023-06-26T10:16:23;7.72;;;4.22;;
78416;SDS011;67715;46.170;6.140;2023-06-26T10:18:52;5.65;;;4.90;;
78416;SDS011;67715;46.170;6.140;2023-06-26T10:21:18;7.00;;;4.40;;
78416;SDS011;67715;46.170;6.140;2023-06-26T10:23:46;6.40;;;4.85;;
78416;SDS011;67715;46.170;6.140;2023-06-26T10:26:11;6.70;;;4.80;;
78416;SDS011;67715;46.170;6.140;2023-06-26T10:28:37;6.95;;;5.10;;
78416;SDS011;67715;46.170;6.140;2023-06-26T10:31:03;5.43;;;4.45;;
78416;SDS011;67715;46.170;6.140;2023-06-26T10:33:29;6.97;;;5.00;;
78416;SDS011;67715;46.170;6.140;2023-06-26T10:36:11;5.53;;;4.80;;
78416;SDS011;67715;46.170;6.140;2023-06-26T10:41:19;5.80;;;4.40;;
78416;SDS011;67715;46.170;6.140;2023-06-26T10:43:45;7.55;;;5.50;;
78416;SDS011;67715;46.170;6.140;2023-06-26T10:46:17;6.47;;;4.70;;
78416;SDS011;67715;46.170;6.140;2023-06-26T10:48:57;5.95;;;4.90;;
78416;SDS011;67715;46.170;6.140;2023-06-26T10:51:24;7.28;;;5.50;;
78416;SDS011;67715;46.170;6.140;2023-06-26T10:53:56;9.27;;;5.68;;
78416;SDS011;67715;46.170;6.140;2023-06-26T10:56:21;8.10;;;4.95;;
78416;SDS011;67715;46.170;6.140;2023-06-26T10:59:39;6.47;;;4.60;;
78416;SDS011;67715;46.170;6.140;2023-06-26T11:01:59;6.60;;;4.70;;
78416;SDS011;67715;46.170;6.140;2023-06-26T11:07:21;7.90;;;4.57;;
78416;SDS011;67715;46.170;6.140;2023-06-26T11:09:57;6.18;;;5.38;;
78416;SDS011;67715;46.170;6.140;2023-06-26T11:12:42;7.35;;;5.05;;
78416;SDS011;67715;46.170;6.140;2023-06-26T11:15:15;5.70;;;4.47;;
78416;SDS011;67715;46.170;6.140;2023-06-26T11:17:41;7.38;;;5.50;;
78416;SDS011;67715;46.170;6.140;2023-06-26T11:20:11;7.28;;;4.97;;
78416;SDS011;67715;46.170;6.140;2023-06-26T11:22:38;7.35;;;5.15;;
78416;SDS011;67715;46.170;6.140;2023-06-26T11:25:05;6.47;;;4.75;;
78416;SDS011;67715;46.170;6.140;2023-06-26T11:30:06;8.30;;;5.55;;
78416;SDS011;67715;46.170;6.140;2023-06-26T11:32:32;6.60;;;4.95;;
78416;SDS011;67715;46.170;6.140;2023-06-26T11:34:58;9.88;;;5.25;;
78416;SDS011;67715;46.170;6.140;2023-06-26T11:37:24;7.38;;;4.93;;
78416;SDS011;67715;46.170;6.140;2023-06-26T11:39:50;7.53;;;5.18;;
78416;SDS011;67715;46.170;6.140;2023-06-26T11:42:16;8.20;;;5.72;;
78416;SDS011;67715;46.170;6.140;2023-06-26T11:44:41;7.32;;;5.13;;
78416;SDS011;67715;46.170;6.140;2023-06-26T11:47:08;9.23;;;5.38;;
78416;SDS011;67715;46.170;6.140;2023-06-26T11:49:37;11.07;;;5.03;;
78416;SDS011;67715;46.170;6.140;2023-06-26T11:52:03;7.97;;;4.97;;
78416;SDS011;67715;46.170;6.140;2023-06-26T11:54:29;8.93;;;5.35;;
78416;SDS011;67715;46.170;6.140;2023-06-26T11:56:55;9.60;;;5.57;;
78416;SDS011;67715;46.170;6.140;2023-06-26T11:59:22;6.70;;;5.10;;
78416;SDS011;67715;46.170;6.140;2023-06-26T12:01:48;6.78;;;4.93;;
78416;SDS011;67715;46.170;6.140;2023-06-26T12:04:15;5.38;;;4.63;;
78416;SDS011;67715;46.170;6.140;2023-06-26T12:06:45;7.25;;;5.45;;
78416;SDS011;67715;46.170;6.140;2023-06-26T12:09:13;6.30;;;5.38;;
78416;SDS011;67715;46.170;6.140;2023-06-26T12:11:42;6.80;;;4.93;;
78416;SDS011;67715;46.170;6.140;2023-06-26T12:14:08;8.30;;;5.45;;
78416;SDS011;67715;46.170;6.140;2023-06-26T12:16:35;7.57;;;5.18;;
78416;SDS011;67715;46.170;6.140;2023-06-26T12:19:05;9.40;;;5.05;;
78416;SDS011;67715;46.170;6.140;2023-06-26T12:24:02;6.78;;;5.07;;
78416;SDS011;67715;46.170;6.140;2023-06-26T12:26:29;6.47;;;5.13;;
78416;SDS011;67715;46.170;6.140;2023-06-26T12:29:01;8.45;;;4.90;;
78416;SDS011;67715;46.170;6.140;2023-06-26T12:31:33;10.63;;;5.10;;
78416;SDS011;67715;46.170;6.140;2023-06-26T12:33:59;7.13;;;5.75;;
78416;SDS011;67715;46.170;6.140;2023-06-26T12:36:25;7.15;;;5.00;;
78416;SDS011;67715;46.170;6.140;2023-06-26T12:38:52;7.18;;;5.57;;
78416;SDS011;67715;46.170;6.140;2023-06-26T12:41:18;7.50;;;5.25;;
78416;SDS011;67715;46.170;6.140;2023-06-26T12:43:45;8.30;;;5.50;;
78416;SDS011;67715;46.170;6.140;2023-06-26T12:46:10;8.73;;;5.28;;
78416;SDS011;67715;46.170;6.140;2023-06-26T12:48:36;6.27;;;4.93;;
78416;SDS011;67715;46.170;6.140;2023-06-26T12:51:16;7.28;;;4.97;;
78416;SDS011;67715;46.170;6.140;2023-06-26T12:53:42;7.65;;;5.47;;
78416;SDS011;67715;46.170;6.140;2023-06-26T12:56:08;7.43;;;6.20;;
78416;SDS011;67715;46.170;6.140;2023-06-26T12:58:35;8.50;;;5.93;;
78416;SDS011;67715;46.170;6.140;2023-06-26T13:01:02;7.15;;;5.30;;
78416;SDS011;67715;46.170;6.140;2023-06-26T13:03:29;7.03;;;5.07;;
78416;SDS011;67715;46.170;6.140;2023-06-26T13:05:54;6.50;;;5.30;;
78416;SDS011;67715;46.170;6.140;2023-06-26T13:08:19;7.57;;;5.40;;
78416;SDS011;67715;46.170;6.140;2023-06-26T13:10:45;6.50;;;5.43;;
78416;SDS011;67715;46.170;6.140;2023-06-26T13:13:10;8.40;;;5.68;;
78416;SDS011;67715;46.170;6.140;2023-06-26T13:15:36;6.13;;;4.97;;
78416;SDS011;67715;46.170;6.140;2023-06-26T13:18:01;9.68;;;5.82;;
78416;SDS011;67715;46.170;6.140;2023-06-26T13:20:27;5.55;;;4.50;;
78416;SDS011;67715;46.170;6.140;2023-06-26T13:22:52;7.88;;;5.22;;
78416;SDS011;67715;46.170;6.140;2023-06-26T13:25:19;9.57;;;5.95;;
78416;SDS011;67715;46.170;6.140;2023-06-26T13:27:44;7.78;;;5.13;;
78416;SDS011;67715;46.170;6.140;2023-06-26T13:30:10;8.57;;;5.83;;
78416;SDS011;67715;46.170;6.140;2023-06-26T13:32:35;7.10;;;5.10;;
78416;SDS011;67715;46.170;6.140;2023-06-26T13:35:00;9.60;;;5.40;;
78416;SDS011;67715;46.170;6.140;2023-06-26T13:37:26;6.57;;;4.87;;
78416;SDS011;67715;46.170;6.140;2023-06-26T13:39:51;6.23;;;5.03;;
78416;SDS011;67715;46.170;6.140;2023-06-26T13:42:17;8.55;;;5.50;;
78416;SDS011;67715;46.170;6.140;2023-06-26T13:44:42;7.05;;;5.00;;
78416;SDS011;67715;46.170;6.140;2023-06-26T13:47:08;8.52;;;5.82;;
78416;SDS011;67715;46.170;6.140;2023-06-26T13:49:34;8.38;;;5.63;;
78416;SDS011;67715;46.170;6.140;2023-06-26T13:52:00;8.03;;;5.90;;
78416;SDS011;67715;46.170;6.140;2023-06-26T13:54:25;7.20;;;5.03;;
78416;SDS011;67715;46.170;6.140;2023-06-26T13:56:50;7.83;;;5.30;;
78416;SDS011;67715;46.170;6.140;2023-06-26T13:59:16;5.45;;;4.90;;
78416;SDS011;67715;46.170;6.140;2023-06-26T14:01:43;7.82;;;5.63;;
78416;SDS011;67715;46.170;6.140;2023-06-26T14:04:08;8.82;;;5.60;;
78416;SDS011;67715;46.170;6.140;2023-06-26T14:06:34;10.55;;;5.03;;
78416;SDS011;67715;46.170;6.140;2023-06-26T14:09:00;6.97;;;4.82;;
78416;SDS011;67715;46.170;6.140;2023-06-26T14:11:26;9.37;;;5.80;;
78416;SDS011;67715;46.170;6.140;2023-06-26T14:13:51;7.95;;;5.22;;
78416;SDS011;67715;46.170;6.140;2023-06-26T14:16:16;6.77;;;5.50;;
78416;SDS011;67715;46.170;6.140;2023-06-26T14:18:43;12.13;;;6.30;;
78416;SDS011;67715;46.170;6.140;2023-06-26T14:21:08;7.22;;;5.20;;
78416;SDS011;67715;46.170;6.140;2023-06-26T14:23:34;6.40;;;4.95;;
78416;SDS011;67715;46.170;6.140;2023-06-26T14:26:00;6.20;;;4.90;;
78416;SDS011;67715;46.170;6.140;2023-06-26T14:28:25;8.70;;;5.27;;
78416;SDS011;67715;46.170;6.140;2023-06-26T14:30:50;7.43;;;5.20;;
78416;SDS011;67715;46.170;6.140;2023-06-26T14:33:16;7.87;;;5.17;;
78416;SDS011;67715;46.170;6.140;2023-06-26T14:35:41;6.27;;;4.90;;
78416;SDS011;67715;46.170;6.140;2023-06-26T14:38:06;7.50;;;5.30;;
78416;SDS011;67715;46.170;6.140;2023-06-26T14:40:32;7.10;;;5.13;;
78416;SDS011;67715;46.170;6.140;2023-06-26T14:42:57;8.00;;;5.37;;
78416;SDS011;67715;46.170;6.140;2023-06-26T14:45:22;7.10;;;5.23;;
78416;SDS011;67715;46.170;6.140;2023-06-26T14:47:47;7.87;;;5.37;;
78416;SDS011;67715;46.170;6.140;2023-06-26T14:50:13;6.97;;;5.23;;
78416;SDS011;67715;46.170;6.140;2023-06-26T14:52:38;6.60;;;5.03;;
78416;SDS011;67715;46.170;6.140;2023-06-26T14:55:03;9.20;;;4.90;;
78416;SDS011;67715;46.170;6.140;2023-06-26T14:57:29;9.75;;;6.28;;